createdAt,value
2018-07-06T00:00:02.253Z,0
2018-07-06T00:01:02.772Z,0
2018-07-06T00:02:02.768Z,0
2018-07-06T00:03:02.757Z,0
2018-07-06T00:04:02.755Z,0
2018-07-06T00:05:02.497Z,0
2018-07-06T00:06:02.748Z,0
2018-07-06T00:07:02.745Z,0
2018-07-06T00:08:02.745Z,0
2018-07-06T00:09:02.225Z,0
2018-07-06T00:10:02.479Z,0
2018-07-06T00:11:02.969Z,0
2018-07-06T00:12:02.736Z,0
2018-07-06T00:13:02.732Z,0
2018-07-06T00:14:02.465Z,0
2018-07-06T00:15:02.472Z,0
2018-07-06T00:16:02.468Z,0
2018-07-06T00:17:02.717Z,0
2018-07-06T00:18:02.713Z,0
2018-07-06T00:19:02.452Z,0
2018-07-06T00:20:02.454Z,0
2018-07-06T00:21:02.449Z,0
2018-07-06T00:22:02.444Z,0
2018-07-06T00:23:02.182Z,0
2018-07-06T00:24:02.439Z,0
2018-07-06T00:25:02.433Z,0
2018-07-06T00:26:02.704Z,0
2018-07-06T00:27:02.692Z,0
2018-07-06T00:28:02.425Z,0
2018-07-06T00:29:02.696Z,0
2018-07-06T00:30:02.678Z,0
2018-07-06T00:31:02.417Z,0
2018-07-06T00:32:02.668Z,0
2018-07-06T00:33:02.414Z,0
2018-07-06T00:34:02.661Z,0
2018-07-06T00:35:02.657Z,0
2018-07-06T00:36:02.653Z,0
2018-07-06T00:37:02.655Z,0
2018-07-06T00:38:02.648Z,0
2018-07-06T00:39:02.643Z,0
2018-07-06T00:40:02.383Z,0
2018-07-06T00:41:02.128Z,0
2018-07-06T00:42:02.385Z,0
2018-07-06T00:43:02.627Z,0
2018-07-06T00:44:02.636Z,0
2018-07-06T00:45:02.630Z,0
2018-07-06T00:46:02.112Z,0
2018-07-06T00:47:02.375Z,0
2018-07-06T00:48:02.357Z,0
2018-07-06T00:49:02.363Z,0
2018-07-06T00:50:02.352Z,0
2018-07-06T00:51:02.613Z,0
2018-07-06T00:52:02.603Z,0
2018-07-06T00:53:02.343Z,0
2018-07-06T00:54:02.598Z,0
2018-07-06T00:55:02.478Z,0
2018-07-06T00:56:02.585Z,0
2018-07-06T00:57:02.326Z,0
2018-07-06T00:58:02.578Z,0
2018-07-06T00:59:02.577Z,0
2018-07-06T01:00:02.583Z,0
2018-07-06T01:01:02.571Z,0
2018-07-06T01:02:02.619Z,0
2018-07-06T01:03:02.564Z,0
2018-07-06T01:04:02.312Z,0
2018-07-06T01:05:02.046Z,0
2018-07-06T01:06:02.548Z,0
2018-07-06T01:07:02.294Z,0
2018-07-06T01:08:02.549Z,0
2018-07-06T01:09:02.289Z,0
2018-07-06T01:10:02.560Z,0
2018-07-06T01:11:02.536Z,0
2018-07-06T01:12:02.529Z,0
2018-07-06T01:13:02.528Z,0
2018-07-06T01:14:02.266Z,0
2018-07-06T01:15:02.521Z,0
2018-07-06T01:16:02.530Z,0
2018-07-06T01:17:01.995Z,0
2018-07-06T01:18:02.518Z,0
2018-07-06T01:19:02.513Z,0
2018-07-06T01:20:02.244Z,0
2018-07-06T01:21:02.245Z,0
2018-07-06T01:22:02.495Z,0
2018-07-06T01:23:02.488Z,0
2018-07-06T01:24:02.496Z,0
2018-07-06T01:25:02.225Z,0
2018-07-06T01:26:02.479Z,0
2018-07-06T01:27:02.211Z,0
2018-07-06T01:28:02.211Z,0
2018-07-06T01:29:02.215Z,0
2018-07-06T01:30:02.477Z,0
2018-07-06T01:31:02.459Z,0
2018-07-06T01:32:02.458Z,0
2018-07-06T01:33:02.458Z,0
2018-07-06T01:34:02.442Z,0
2018-07-06T01:35:02.442Z,0
2018-07-06T01:36:02.437Z,0
2018-07-06T01:37:02.181Z,0
2018-07-06T01:38:02.175Z,0
2018-07-06T01:39:02.161Z,0
2018-07-06T01:40:02.432Z,0
2018-07-06T01:41:02.158Z,0
2018-07-06T01:42:02.154Z,0
2018-07-06T01:43:02.146Z,0
2018-07-06T01:44:02.412Z,0
2018-07-06T01:45:02.429Z,0
2018-07-06T01:46:02.400Z,0
2018-07-06T01:47:02.129Z,0
2018-07-06T01:48:02.136Z,0
2018-07-06T01:49:02.390Z,0
2018-07-06T01:50:02.379Z,0
2018-07-06T01:51:02.127Z,0
2018-07-06T01:52:02.376Z,0
2018-07-06T01:53:02.105Z,0
2018-07-06T01:54:02.371Z,0
2018-07-06T01:55:02.363Z,0
2018-07-06T01:56:02.352Z,0
2018-07-06T01:57:02.347Z,0
2018-07-06T01:58:01.830Z,0
2018-07-06T01:59:02.337Z,0
2018-07-06T02:00:02.343Z,0
2018-07-06T02:01:02.336Z,0
2018-07-06T02:02:02.067Z,0
2018-07-06T02:03:02.333Z,0
2018-07-06T02:04:02.062Z,0
2018-07-06T02:05:02.316Z,0
2018-07-06T02:06:02.307Z,0
2018-07-06T02:07:02.309Z,0
2018-07-06T02:08:02.296Z,0
2018-07-06T02:09:02.301Z,0
2018-07-06T02:10:02.290Z,0
2018-07-06T02:11:02.289Z,0
2018-07-06T02:12:02.027Z,0
2018-07-06T02:13:02.021Z,0
2018-07-06T02:14:02.018Z,0
2018-07-06T02:15:02.021Z,0
2018-07-06T02:16:02.009Z,0
2018-07-06T02:17:02.262Z,0
2018-07-06T02:18:02.006Z,0
2018-07-06T02:19:02.252Z,0
2018-07-06T02:20:02.255Z,0
2018-07-06T02:21:02.245Z,0
2018-07-06T02:22:02.239Z,0
2018-07-06T02:23:02.235Z,0
2018-07-06T02:24:01.973Z,0
2018-07-06T02:25:01.969Z,0
2018-07-06T02:26:02.221Z,0
2018-07-06T02:27:01.963Z,0
2018-07-06T02:28:02.228Z,4
2018-07-06T02:29:02.217Z,0
2018-07-06T02:30:02.208Z,0
2018-07-06T02:31:02.208Z,0
2018-07-06T02:32:02.199Z,4
2018-07-06T02:33:02.241Z,4
2018-07-06T02:34:01.938Z,0
2018-07-06T02:35:02.187Z,4
2018-07-06T02:36:02.189Z,4
2018-07-06T02:37:01.940Z,4
2018-07-06T02:38:02.181Z,8
2018-07-06T02:39:02.163Z,4
2018-07-06T02:40:01.665Z,8
2018-07-06T02:41:02.162Z,8
2018-07-06T02:42:01.643Z,8
2018-07-06T02:43:01.901Z,12
2018-07-06T02:44:01.629Z,12
2018-07-06T02:45:02.146Z,12
2018-07-06T02:46:01.922Z,16
2018-07-06T02:47:01.889Z,16
2018-07-06T02:48:01.890Z,16
2018-07-06T02:49:01.873Z,20
2018-07-06T02:50:01.878Z,20
2018-07-06T02:51:02.118Z,24
2018-07-06T02:52:02.121Z,24
2018-07-06T02:53:01.853Z,28
2018-07-06T02:54:02.110Z,28
2018-07-06T02:55:01.893Z,32
2018-07-06T02:56:01.852Z,32
2018-07-06T02:57:02.141Z,36
2018-07-06T02:58:02.102Z,40
2018-07-06T02:59:02.085Z,48
2018-07-06T03:00:01.840Z,52
2018-07-06T03:01:01.823Z,60
2018-07-06T03:02:01.820Z,64
2018-07-06T03:03:02.084Z,76
2018-07-06T03:04:01.808Z,88
2018-07-06T03:05:02.057Z,104
2018-07-06T03:06:01.800Z,112
2018-07-06T03:07:02.107Z,124
2018-07-06T03:08:01.796Z,128
2018-07-06T03:09:01.797Z,136
2018-07-06T03:10:01.808Z,144
2018-07-06T03:11:01.799Z,148
2018-07-06T03:12:01.775Z,148
2018-07-06T03:13:01.254Z,152
2018-07-06T03:14:02.030Z,152
2018-07-06T03:15:01.808Z,148
2018-07-06T03:16:02.033Z,144
2018-07-06T03:17:02.006Z,140
2018-07-06T03:18:02.016Z,132
2018-07-06T03:19:01.741Z,136
2018-07-06T03:20:01.738Z,140
2018-07-06T03:21:01.988Z,148
2018-07-06T03:22:02.002Z,152
2018-07-06T03:23:01.988Z,160
2018-07-06T03:24:01.723Z,168
2018-07-06T03:25:01.975Z,176
2018-07-06T03:26:01.716Z,184
2018-07-06T03:27:01.971Z,192
2018-07-06T03:28:02.580Z,196
2018-07-06T03:29:01.702Z,208
2018-07-06T03:30:01.726Z,216
2018-07-06T03:31:01.692Z,224
2018-07-06T03:32:01.686Z,236
2018-07-06T03:33:01.941Z,240
2018-07-06T03:34:01.679Z,248
2018-07-06T03:35:01.936Z,252
2018-07-06T03:36:01.933Z,264
2018-07-06T03:37:01.927Z,276
2018-07-06T03:38:01.917Z,288
2018-07-06T03:39:01.663Z,296
2018-07-06T03:40:01.648Z,304
2018-07-06T03:41:01.918Z,328
2018-07-06T03:42:01.902Z,336
2018-07-06T03:43:01.902Z,360
2018-07-06T03:44:01.890Z,368
2018-07-06T03:45:01.889Z,392
2018-07-06T03:46:01.882Z,388
2018-07-06T03:47:01.888Z,416
2018-07-06T03:48:01.960Z,428
2018-07-06T03:49:01.889Z,428
2018-07-06T03:50:01.865Z,440
2018-07-06T03:51:01.616Z,448
2018-07-06T03:52:01.858Z,452
2018-07-06T03:53:01.852Z,456
2018-07-06T03:54:01.851Z,464
2018-07-06T03:55:02.066Z,472
2018-07-06T03:56:01.585Z,476
2018-07-06T03:57:01.839Z,480
2018-07-06T03:58:01.831Z,484
2018-07-06T03:59:01.823Z,492
2018-07-06T04:00:01.834Z,496
2018-07-06T04:01:01.884Z,504
2018-07-06T04:02:01.829Z,504
2018-07-06T04:03:01.810Z,504
2018-07-06T04:04:01.806Z,512
2018-07-06T04:05:01.801Z,524
2018-07-06T04:06:01.550Z,540
2018-07-06T04:07:01.794Z,560
2018-07-06T04:08:01.531Z,580
2018-07-06T04:09:01.274Z,608
2018-07-06T04:10:01.552Z,632
2018-07-06T04:11:01.772Z,660
2018-07-06T04:12:01.775Z,684
2018-07-06T04:13:01.250Z,704
2018-07-06T04:14:01.761Z,728
2018-07-06T04:15:01.503Z,752
2018-07-06T04:16:02.019Z,776
2018-07-06T04:17:01.491Z,808
2018-07-06T04:18:01.493Z,836
2018-07-06T04:19:01.480Z,864
2018-07-06T04:20:01.482Z,888
2018-07-06T04:21:01.216Z,904
2018-07-06T04:22:01.475Z,924
2018-07-06T04:23:01.462Z,940
2018-07-06T04:24:01.720Z,952
2018-07-06T04:25:01.453Z,964
2018-07-06T04:26:01.462Z,980
2018-07-06T04:27:01.715Z,996
2018-07-06T04:28:01.445Z,1016
2018-07-06T04:29:01.697Z,1036
2018-07-06T04:30:01.693Z,1056
2018-07-06T04:31:01.692Z,1076
2018-07-06T04:32:01.692Z,1088
2018-07-06T04:33:01.678Z,1104
2018-07-06T04:34:01.671Z,1120
2018-07-06T04:35:01.414Z,1136
2018-07-06T04:36:01.667Z,1148
2018-07-06T04:37:01.681Z,1164
2018-07-06T04:38:01.400Z,1176
2018-07-06T04:39:01.398Z,1188
2018-07-06T04:40:01.652Z,1204
2018-07-06T04:41:01.383Z,1228
2018-07-06T04:42:01.647Z,1272
2018-07-06T04:43:01.634Z,1324
2018-07-06T04:44:01.632Z,1384
2018-07-06T04:45:01.631Z,1460
2018-07-06T04:46:01.629Z,1540
2018-07-06T04:47:01.359Z,1628
2018-07-06T04:48:01.612Z,1720
2018-07-06T04:49:01.349Z,1816
2018-07-06T04:50:01.344Z,1924
2018-07-06T04:51:01.478Z,2044
2018-07-06T04:52:01.606Z,2164
2018-07-06T04:53:01.595Z,2292
2018-07-06T04:54:01.588Z,2428
2018-07-06T04:55:01.587Z,2620
2018-07-06T04:56:01.578Z,2792
2018-07-06T04:57:01.576Z,2960
2018-07-06T04:58:01.581Z,3116
2018-07-06T04:59:01.567Z,3264
2018-07-06T05:00:01.736Z,3404
2018-07-06T05:01:01.557Z,3396
2018-07-06T05:02:01.563Z,3576
2018-07-06T05:03:01.550Z,3892
2018-07-06T05:04:01.290Z,4048
2018-07-06T05:05:01.548Z,4072
2018-07-06T05:06:01.552Z,4048
2018-07-06T05:07:01.275Z,4180
2018-07-06T05:08:01.269Z,4232
2018-07-06T05:09:01.520Z,4320
2018-07-06T05:10:01.522Z,4288
2018-07-06T05:11:01.513Z,4252
2018-07-06T05:12:01.255Z,4336
2018-07-06T05:13:01.257Z,4472
2018-07-06T05:14:01.261Z,4568
2018-07-06T05:15:01.495Z,4652
2018-07-06T05:16:01.499Z,4684
2018-07-06T05:17:01.797Z,4676
2018-07-06T05:18:01.524Z,4612
2018-07-06T05:19:01.488Z,4508
2018-07-06T05:20:01.478Z,4408
2018-07-06T05:21:01.216Z,4308
2018-07-06T05:22:01.476Z,4216
2018-07-06T05:23:01.207Z,4112
2018-07-06T05:24:01.463Z,4004
2018-07-06T05:25:01.455Z,3872
2018-07-06T05:26:01.452Z,3700
2018-07-06T05:27:01.451Z,3632
2018-07-06T05:28:01.446Z,3696
2018-07-06T05:29:01.440Z,3552
2018-07-06T05:30:01.434Z,3504
2018-07-06T05:31:01.432Z,3424
2018-07-06T05:32:01.299Z,3528
2018-07-06T05:33:01.167Z,3556
2018-07-06T05:34:01.166Z,3392
2018-07-06T05:35:01.408Z,3240
2018-07-06T05:36:00.896Z,3184
2018-07-06T05:37:01.416Z,3452
2018-07-06T05:38:01.304Z,3612
2018-07-06T05:39:01.144Z,3640
2018-07-06T05:40:01.393Z,3868
2018-07-06T05:41:00.885Z,4008
2018-07-06T05:42:01.399Z,4128
2018-07-06T05:43:01.382Z,4212
2018-07-06T05:44:01.384Z,4228
2018-07-06T05:45:01.371Z,4200
2018-07-06T05:46:01.423Z,4192
2018-07-06T05:47:01.109Z,4132
2018-07-06T05:48:01.711Z,4040
2018-07-06T05:49:01.102Z,3948
2018-07-06T05:50:01.354Z,3840
2018-07-06T05:51:01.094Z,3736
2018-07-06T05:52:01.341Z,3660
2018-07-06T05:53:01.340Z,3604
2018-07-06T05:54:01.493Z,3568
2018-07-06T05:55:01.072Z,3544
2018-07-06T05:56:01.329Z,3540
2018-07-06T05:57:01.326Z,3556
2018-07-06T05:58:01.056Z,3576
2018-07-06T05:59:01.322Z,3588
2018-07-06T06:00:01.313Z,3616
2018-07-06T06:01:01.304Z,3632
2018-07-06T06:02:01.305Z,3664
2018-07-06T06:03:01.304Z,3680
2018-07-06T06:04:01.289Z,3656
2018-07-06T06:05:01.293Z,3588
2018-07-06T06:06:01.281Z,3524
2018-07-06T06:07:01.283Z,3508
2018-07-06T06:08:01.277Z,3472
2018-07-06T06:09:01.287Z,3404
2018-07-06T06:10:01.008Z,3344
2018-07-06T06:11:01.267Z,3304
2018-07-06T06:12:01.007Z,3316
2018-07-06T06:13:01.003Z,3360
2018-07-06T06:14:00.988Z,3416
2018-07-06T06:15:01.267Z,3464
2018-07-06T06:16:01.259Z,3468
2018-07-06T06:17:01.271Z,3484
2018-07-06T06:18:00.714Z,3544
2018-07-06T06:19:01.134Z,3608
2018-07-06T06:20:01.225Z,3664
2018-07-06T06:21:01.214Z,3708
2018-07-06T06:22:01.221Z,3752
2018-07-06T06:23:00.947Z,3828
2018-07-06T06:24:01.209Z,3928
2018-07-06T06:25:01.515Z,4060
2018-07-06T06:26:01.194Z,4232
2018-07-06T06:27:00.934Z,4404
2018-07-06T06:28:01.186Z,4560
2018-07-06T06:29:01.182Z,4720
2018-07-06T06:30:00.664Z,4896
2018-07-06T06:31:00.915Z,5128
2018-07-06T06:32:00.913Z,5364
2018-07-06T06:33:01.508Z,5516
2018-07-06T06:34:01.314Z,5484
2018-07-06T06:35:01.159Z,5496
2018-07-06T06:36:01.171Z,5652
2018-07-06T06:37:00.889Z,5816
2018-07-06T06:38:01.143Z,5936
2018-07-06T06:39:00.886Z,6048
2018-07-06T06:40:00.877Z,6300
2018-07-06T06:41:01.134Z,6488
2018-07-06T06:42:01.128Z,6644
2018-07-06T06:43:01.131Z,6836
2018-07-06T06:44:01.128Z,7080
2018-07-06T06:45:00.865Z,7388
2018-07-06T06:46:01.109Z,7588
2018-07-06T06:47:01.116Z,7620
2018-07-06T06:48:00.844Z,7608
2018-07-06T06:49:00.847Z,7744
2018-07-06T06:50:00.841Z,7676
2018-07-06T06:51:00.834Z,7500
2018-07-06T06:52:00.839Z,7500
2018-07-06T06:53:01.159Z,7332
2018-07-06T06:54:00.820Z,7304
2018-07-06T06:55:00.821Z,7072
2018-07-06T06:56:01.071Z,7024
2018-07-06T06:57:00.812Z,6796
2018-07-06T06:58:01.066Z,6588
2018-07-06T06:59:01.246Z,6444
2018-07-06T07:00:00.798Z,6184
2018-07-06T07:01:00.926Z,6228
2018-07-06T07:02:01.053Z,6240
2018-07-06T07:03:01.056Z,6064
2018-07-06T07:04:01.040Z,5736
2018-07-06T07:05:01.044Z,5372
2018-07-06T07:06:00.779Z,5096
2018-07-06T07:07:00.515Z,4972
2018-07-06T07:08:00.767Z,4908
2018-07-06T07:09:00.764Z,4732
2018-07-06T07:10:01.013Z,4752
2018-07-06T07:11:00.501Z,4640
2018-07-06T07:12:01.013Z,4212
2018-07-06T07:13:01.012Z,4376
2018-07-06T07:14:01.434Z,4256
2018-07-06T07:15:01.000Z,4472
2018-07-06T07:16:00.995Z,5084
2018-07-06T07:17:00.988Z,5448
2018-07-06T07:18:00.729Z,5356
2018-07-06T07:19:00.990Z,5596
2018-07-06T07:20:00.978Z,5752
2018-07-06T07:21:00.972Z,5976
2018-07-06T07:22:00.968Z,6452
2018-07-06T07:23:00.974Z,6868
2018-07-06T07:24:00.446Z,7216
2018-07-06T07:25:00.441Z,7540
2018-07-06T07:26:00.947Z,7816
2018-07-06T07:27:00.694Z,7996
2018-07-06T07:28:00.688Z,8048
2018-07-06T07:29:00.939Z,7992
2018-07-06T07:30:00.195Z,7860
2018-07-06T07:31:00.669Z,7596
2018-07-06T07:32:00.931Z,7292
2018-07-06T07:33:00.918Z,7228
2018-07-06T07:34:00.913Z,7408
2018-07-06T07:35:00.660Z,7856
2018-07-06T07:36:00.650Z,7900
2018-07-06T07:37:00.654Z,7912
2018-07-06T07:38:00.648Z,7712
2018-07-06T07:39:01.227Z,7468
2018-07-06T07:40:00.634Z,8028
2018-07-06T07:41:00.629Z,8616
2018-07-06T07:42:00.624Z,8828
2018-07-06T07:43:00.877Z,8724
2018-07-06T07:44:00.621Z,8552
2018-07-06T07:45:00.876Z,8628
2018-07-06T07:46:00.614Z,8472
2018-07-06T07:47:00.862Z,7752
2018-07-06T07:48:00.862Z,7340
2018-07-06T07:49:00.855Z,6816
2018-07-06T07:50:00.852Z,6384
2018-07-06T07:51:00.587Z,6384
2018-07-06T07:52:00.850Z,7220
2018-07-06T07:53:00.844Z,7540
2018-07-06T07:54:00.840Z,7424
2018-07-06T07:55:00.650Z,7196
2018-07-06T07:56:00.824Z,7008
2018-07-06T07:57:00.828Z,6680
2018-07-06T07:58:00.301Z,6128
2018-07-06T07:59:00.827Z,5624
2018-07-06T08:00:00.827Z,5712
2018-07-06T08:01:00.701Z,5496
2018-07-06T08:02:00.847Z,5520
2018-07-06T08:03:00.301Z,5960
2018-07-06T08:04:00.819Z,6236
2018-07-06T08:05:00.793Z,6228
2018-07-06T08:06:00.272Z,6520
2018-07-06T08:07:00.791Z,7068
2018-07-06T08:08:00.269Z,7788
2018-07-06T08:09:00.778Z,9136
2018-07-06T08:10:00.516Z,10376
2018-07-06T08:11:00.768Z,11468
2018-07-06T08:12:00.759Z,12652
2018-07-06T08:13:00.511Z,14280
2018-07-06T08:14:07.618Z,15688
2018-07-06T08:15:00.753Z,17376
2018-07-06T08:16:00.747Z,16088
2018-07-06T08:17:00.494Z,14688
2018-07-06T08:18:00.498Z,16576
2018-07-06T08:19:00.744Z,18848
2018-07-06T08:20:00.738Z,19552
2018-07-06T08:21:00.221Z,20128
2018-07-06T08:22:00.732Z,18080
2018-07-06T08:23:00.473Z,14004
2018-07-06T08:24:00.740Z,11504
2018-07-06T08:25:00.728Z,9692
2018-07-06T08:26:00.726Z,8800
2018-07-06T08:27:00.721Z,8888
2018-07-06T08:28:00.460Z,8256
2018-07-06T08:29:00.710Z,7760
2018-07-06T08:30:00.203Z,8092
2018-07-06T08:31:00.458Z,8676
2018-07-06T08:32:00.712Z,8600
2018-07-06T08:33:00.704Z,8224
2018-07-06T08:34:00.698Z,7700
2018-07-06T08:35:00.439Z,7508
2018-07-06T08:36:00.703Z,7696
2018-07-06T08:37:00.699Z,7132
2018-07-06T08:38:00.181Z,6484
2018-07-06T08:39:00.733Z,6440
2018-07-06T08:40:00.989Z,7000
2018-07-06T08:41:00.697Z,7244
2018-07-06T08:42:00.682Z,6628
2018-07-06T08:43:00.681Z,5848
2018-07-06T08:44:00.681Z,5704
2018-07-06T08:45:00.679Z,5476
2018-07-06T08:46:00.162Z,5200
2018-07-06T08:47:00.670Z,5248
2018-07-06T08:48:00.415Z,5044
2018-07-06T08:49:00.681Z,4944
2018-07-06T08:50:00.432Z,5328
2018-07-06T08:51:00.150Z,6176
2018-07-06T08:52:00.407Z,6560
2018-07-06T08:53:00.406Z,6060
2018-07-06T08:54:00.659Z,6092
2018-07-06T08:55:00.650Z,7052
2018-07-06T08:56:00.651Z,7508
2018-07-06T08:57:00.649Z,7904
2018-07-06T08:58:00.652Z,7168
2018-07-06T08:59:00.640Z,7916
2018-07-06T09:00:00.632Z,8780
2018-07-06T09:01:00.373Z,10580
2018-07-06T09:02:00.375Z,10988
2018-07-06T09:03:00.633Z,11364
2018-07-06T09:04:00.723Z,13516
2018-07-06T09:05:00.664Z,13552
2018-07-06T09:06:00.111Z,12676
2018-07-06T09:07:00.614Z,12464
2018-07-06T09:08:00.659Z,12096
2018-07-06T09:09:00.755Z,13632
2018-07-06T09:10:00.353Z,14032
2018-07-06T09:11:00.347Z,13816
2018-07-06T09:12:00.692Z,14676
2018-07-06T09:13:00.798Z,14288
2018-07-06T09:14:00.674Z,10920
2018-07-06T09:15:00.752Z,9524
2018-07-06T09:16:00.483Z,8536
2018-07-06T09:17:00.080Z,7856
2018-07-06T09:18:00.700Z,9060
2018-07-06T09:19:00.392Z,9496
2018-07-06T09:20:02.580Z,10128
2018-07-06T09:21:00.334Z,10936
2018-07-06T09:22:00.627Z,10948
2018-07-06T09:23:00.681Z,9124
2018-07-06T09:24:00.655Z,8028
2018-07-06T09:25:00.657Z,7152
2018-07-06T09:26:01.765Z,7436
2018-07-06T09:27:00.613Z,9700
2018-07-06T09:28:00.586Z,13120
2018-07-06T09:29:00.332Z,15516
2018-07-06T09:30:00.598Z,15380
2018-07-06T09:31:00.411Z,13784
2018-07-06T09:32:00.311Z,14780
2018-07-06T09:33:00.565Z,15484
2018-07-06T09:34:00.414Z,14260
2018-07-06T09:35:00.569Z,13504
2018-07-06T09:36:00.939Z,14168
2018-07-06T09:37:00.661Z,14608
2018-07-06T09:38:00.382Z,14520
2018-07-06T09:39:00.637Z,13296
2018-07-06T09:40:00.610Z,11448
2018-07-06T09:41:00.602Z,9016
2018-07-06T09:42:00.619Z,7576
2018-07-06T09:43:00.348Z,8744
2018-07-06T09:44:00.379Z,10068
2018-07-06T09:45:00.446Z,10744
2018-07-06T09:46:00.669Z,11180
2018-07-06T09:47:00.561Z,10668
2018-07-06T09:48:00.355Z,10088
2018-07-06T09:49:00.651Z,10480
2018-07-06T09:50:00.391Z,9100
2018-07-06T09:51:01.038Z,7472
2018-07-06T09:52:00.402Z,7712
2018-07-06T09:53:00.723Z,9796
2018-07-06T09:54:00.603Z,12176
2018-07-06T09:55:00.636Z,12200
2018-07-06T09:56:00.256Z,12724
2018-07-06T09:57:00.249Z,15016
2018-07-06T09:58:00.631Z,14724
2018-07-06T09:59:00.243Z,12904
2018-07-06T10:00:00.551Z,12556
2018-07-06T10:01:00.249Z,12528
2018-07-06T10:02:00.505Z,11948
2018-07-06T10:03:00.498Z,10584
2018-07-06T10:04:00.245Z,11676
2018-07-06T10:05:00.499Z,13452
2018-07-06T10:06:00.494Z,15032
2018-07-06T10:07:00.505Z,14912
2018-07-06T10:08:00.493Z,13944
2018-07-06T10:09:00.489Z,13324
2018-07-06T10:10:00.838Z,12684
2018-07-06T10:11:00.636Z,15008
2018-07-06T10:12:00.490Z,18464
2018-07-06T10:13:00.487Z,16576
2018-07-06T10:14:00.227Z,14156
2018-07-06T10:15:00.228Z,13432
2018-07-06T10:16:00.236Z,15244
2018-07-06T10:17:00.225Z,17504
2018-07-06T10:18:00.485Z,18688
2018-07-06T10:18:59.965Z,18368
2018-07-06T10:20:00.746Z,17216
2018-07-06T10:21:00.484Z,15684
2018-07-06T10:22:00.771Z,14828
2018-07-06T10:23:00.476Z,16224
2018-07-06T10:24:00.480Z,16768
2018-07-06T10:25:00.225Z,16768
2018-07-06T10:26:00.483Z,17152
2018-07-06T10:27:00.477Z,17856
2018-07-06T10:28:00.477Z,18432
2018-07-06T10:29:00.482Z,18784
2018-07-06T10:30:00.486Z,17056
2018-07-06T10:31:00.482Z,15288
2018-07-06T10:32:00.224Z,13044
2018-07-06T10:33:00.595Z,11436
2018-07-06T10:34:00.455Z,10388
2018-07-06T10:35:00.483Z,9848
2018-07-06T10:35:59.972Z,10200
2018-07-06T10:37:00.486Z,10760
2018-07-06T10:38:00.489Z,12000
2018-07-06T10:39:00.223Z,16736
2018-07-06T10:40:01.337Z,18688
2018-07-06T10:41:00.232Z,17504
2018-07-06T10:42:00.482Z,15568
2018-07-06T10:43:00.488Z,15544
2018-07-06T10:44:00.482Z,17472
2018-07-06T10:45:00.487Z,19584
2018-07-06T10:46:00.485Z,18048
2018-07-06T10:46:59.969Z,17152
2018-07-06T10:48:00.485Z,16704
2018-07-06T10:49:00.503Z,13468
2018-07-06T10:50:00.497Z,11612
2018-07-06T10:50:59.968Z,12368
2018-07-06T10:51:59.982Z,13640
2018-07-06T10:53:00.491Z,12728
2018-07-06T10:54:00.482Z,11940
2018-07-06T10:55:00.233Z,11420
2018-07-06T10:56:00.230Z,11808
2018-07-06T10:57:00.491Z,13236
2018-07-06T10:58:00.490Z,14156
2018-07-06T10:59:00.229Z,16128
2018-07-06T11:00:00.237Z,18592
2018-07-06T11:01:00.495Z,19136
2018-07-06T11:02:00.272Z,18688
2018-07-06T11:02:59.975Z,18336
2018-07-06T11:04:00.232Z,17664
2018-07-06T11:05:00.127Z,17248
2018-07-06T11:06:00.235Z,16256
2018-07-06T11:07:00.493Z,16544
2018-07-06T11:08:00.490Z,19040
2018-07-06T11:09:00.764Z,18336
2018-07-06T11:10:00.236Z,17024
2018-07-06T11:11:00.234Z,17216
2018-07-06T11:12:00.506Z,15392
2018-07-06T11:13:00.237Z,12616
2018-07-06T11:13:59.980Z,10840
2018-07-06T11:15:00.246Z,10780
2018-07-06T11:15:59.983Z,9240
2018-07-06T11:16:59.981Z,7360
2018-07-06T11:18:00.243Z,7076
2018-07-06T11:19:00.254Z,9492
2018-07-06T11:19:59.989Z,13312
2018-07-06T11:20:59.989Z,16544
2018-07-06T11:22:00.498Z,15776
2018-07-06T11:23:00.527Z,13860
2018-07-06T11:24:00.249Z,11984
2018-07-06T11:25:00.532Z,11280
2018-07-06T11:26:00.516Z,10680
2018-07-06T11:27:00.256Z,10320
2018-07-06T11:28:00.504Z,10868
2018-07-06T11:29:00.503Z,11680
2018-07-06T11:30:00.251Z,11784
2018-07-06T11:31:00.252Z,11612
2018-07-06T11:32:00.522Z,12252
2018-07-06T11:33:00.254Z,12592
2018-07-06T11:34:00.510Z,12444
2018-07-06T11:35:00.273Z,11488
2018-07-06T11:36:00.520Z,11700
2018-07-06T11:37:00.270Z,13256
2018-07-06T11:38:00.754Z,14272
2018-07-06T11:39:00.255Z,14492
2018-07-06T11:40:00.257Z,15464
2018-07-06T11:41:00.515Z,15712
2018-07-06T11:42:00.516Z,15728
2018-07-06T11:43:00.515Z,16288
2018-07-06T11:44:00.263Z,15580
2018-07-06T11:45:01.067Z,15452
2018-07-06T11:46:00.525Z,14328
2018-07-06T11:47:00.271Z,14156
2018-07-06T11:48:00.264Z,12048
2018-07-06T11:49:00.264Z,10936
2018-07-06T11:50:00.524Z,12040
2018-07-06T11:51:00.281Z,11928
2018-07-06T11:52:00.275Z,10604
2018-07-06T11:53:00.274Z,9228
2018-07-06T11:54:00.270Z,9420
2018-07-06T11:55:00.280Z,11064
2018-07-06T11:56:00.085Z,13540
2018-07-06T11:57:00.537Z,13592
2018-07-06T11:58:00.542Z,11752
2018-07-06T11:59:00.535Z,11600
2018-07-06T12:00:00.540Z,13512
2018-07-06T12:01:00.033Z,16928
2018-07-06T12:02:00.712Z,17312
2018-07-06T12:03:00.542Z,15052
2018-07-06T12:04:00.764Z,13616
2018-07-06T12:05:00.296Z,13372
2018-07-06T12:06:00.552Z,13864
2018-07-06T12:07:00.038Z,12944
2018-07-06T12:08:00.039Z,12764
2018-07-06T12:09:00.304Z,11860
2018-07-06T12:10:00.295Z,12148
2018-07-06T12:11:00.555Z,13532
2018-07-06T12:12:00.558Z,15808
2018-07-06T12:13:00.043Z,16928
2018-07-06T12:14:00.561Z,16288
2018-07-06T12:15:00.570Z,15900
2018-07-06T12:16:00.330Z,15544
2018-07-06T12:17:00.312Z,15348
2018-07-06T12:18:00.566Z,14112
2018-07-06T12:19:00.307Z,13368
2018-07-06T12:20:00.566Z,13156
2018-07-06T12:21:00.539Z,13996
2018-07-06T12:22:00.582Z,15104
2018-07-06T12:23:00.315Z,13976
2018-07-06T12:24:00.567Z,13632
2018-07-06T12:25:00.317Z,15136
2018-07-06T12:26:00.060Z,15108
2018-07-06T12:27:00.583Z,15184
2018-07-06T12:28:00.776Z,15800
2018-07-06T12:29:00.161Z,14324
2018-07-06T12:30:00.324Z,13192
2018-07-06T12:31:00.329Z,13616
2018-07-06T12:32:00.594Z,14552
2018-07-06T12:33:00.324Z,15520
2018-07-06T12:34:00.590Z,14908
2018-07-06T12:35:00.594Z,13316
2018-07-06T12:36:00.331Z,12552
2018-07-06T12:37:00.630Z,12876
2018-07-06T12:38:00.595Z,13680
2018-07-06T12:39:00.329Z,13436
2018-07-06T12:40:00.595Z,13748
2018-07-06T12:41:00.595Z,14384
2018-07-06T12:42:00.342Z,14880
2018-07-06T12:43:00.349Z,14620
2018-07-06T12:44:00.342Z,12076
2018-07-06T12:45:00.594Z,11396
2018-07-06T12:46:00.606Z,12944
2018-07-06T12:47:00.345Z,14828
2018-07-06T12:48:00.345Z,15736
2018-07-06T12:49:00.349Z,14808
2018-07-06T12:50:00.602Z,14248
2018-07-06T12:51:00.345Z,12808
2018-07-06T12:52:00.360Z,12432
2018-07-06T12:53:00.611Z,12040
2018-07-06T12:54:00.608Z,12124
2018-07-06T12:55:00.352Z,11936
2018-07-06T12:56:00.611Z,12776
2018-07-06T12:57:00.357Z,13296
2018-07-06T12:58:00.630Z,13700
2018-07-06T12:59:00.368Z,13320
2018-07-06T13:00:00.372Z,12384
2018-07-06T13:01:00.620Z,11340
2018-07-06T13:02:00.623Z,10068
2018-07-06T13:03:00.623Z,9672
2018-07-06T13:04:00.620Z,9972
2018-07-06T13:05:00.110Z,9672
2018-07-06T13:06:00.112Z,9044
2018-07-06T13:07:00.378Z,9176
2018-07-06T13:08:00.635Z,10228
2018-07-06T13:09:00.632Z,11960
2018-07-06T13:10:00.640Z,13828
2018-07-06T13:11:00.648Z,14820
2018-07-06T13:12:00.640Z,14940
2018-07-06T13:13:00.381Z,15168
2018-07-06T13:14:00.689Z,14756
2018-07-06T13:15:00.386Z,13492
2018-07-06T13:16:00.649Z,11960
2018-07-06T13:17:00.390Z,11812
2018-07-06T13:18:00.648Z,12532
2018-07-06T13:19:00.650Z,13180
2018-07-06T13:20:00.835Z,13152
2018-07-06T13:21:01.024Z,12424
2018-07-06T13:22:00.650Z,11704
2018-07-06T13:23:00.393Z,11408
2018-07-06T13:24:00.142Z,11208
2018-07-06T13:25:00.657Z,10592
2018-07-06T13:26:01.006Z,10148
2018-07-06T13:27:00.654Z,10348
2018-07-06T13:28:00.653Z,11408
2018-07-06T13:29:00.421Z,12612
2018-07-06T13:30:00.665Z,13404